Time;durP1;ratioP1;P1;durP2;ratioP2;P2;SDS_P1;SDS_P2;PMS_P1;PMS_P2;Temp;Humidity;BMP_temperature;BMP_pressure;BME280_temperature;BME280_humidity;BME280_pressure;Samples;Min_cycle;Max_cycle;Signal;HPM_P1;HPM_P2
2024/01/14 00:00:09;;;;;;;21.40;10.67;;;;;;;;;;5035625;28;20175;-75
2024/01/14 00:02:35;;;;;;;27.23;11.40;;;;;;;;;;5042115;28;20186;-75
2024/01/14 00:05:00;;;;;;;24.30;14.83;;;;;;;;;;5035811;28;20181;-74
2024/01/14 00:07:25;;;;;;;26.53;13.37;;;;;;;;;;5041622;28;20182;-74
2024/01/14 00:09:51;;;;;;;26.07;13.43;;;;;;;;;;5035357;28;20174;-74
2024/01/14 00:12:16;;;;;;;22.43;13.03;;;;;;;;;;5032904;28;20225;-74
2024/01/14 00:14:41;;;;;;;23.13;10.47;;;;;;;;;;5036230;28;20179;-75
2024/01/14 00:17:07;;;;;;;28.17;13.60;;;;;;;;;;5041869;28;20236;-74
2024/01/14 00:19:32;;;;;;;26.43;13.93;;;;;;;;;;5032696;28;20182;-74
2024/01/14 00:21:57;;;;;;;25.87;14.80;;;;;;;;;;5036427;28;20186;-74
2024/01/14 00:24:22;;;;;;;26.27;14.53;;;;;;;;;;5032010;28;20233;-75
2024/01/14 00:26:47;;;;;;;25.77;12.30;;;;;;;;;;5035831;28;20605;-75
2024/01/14 00:29:13;;;;;;;22.13;10.13;;;;;;;;;;5044551;28;20245;-74
2024/01/14 00:31:38;;;;;;;19.23;11.10;;;;;;;;;;5043445;28;20312;-74
2024/01/14 00:34:04;;;;;;;25.03;11.33;;;;;;;;;;5037266;28;20186;-75
2024/01/14 00:36:29;;;;;;;19.30;9.63;;;;;;;;;;5046037;28;20178;-75
2024/01/14 00:38:54;;;;;;;18.53;11.37;;;;;;;;;;5035800;28;20205;-75
2024/01/14 00:41:20;;;;;;;23.60;10.43;;;;;;;;;;5034890;28;20234;-74
2024/01/14 00:43:45;;;;;;;22.83;11.17;;;;;;;;;;5036268;28;20189;-74
2024/01/14 00:46:11;;;;;;;18.47;9.87;;;;;;;;;;5038748;28;20213;-74
2024/01/14 00:48:36;;;;;;;19.10;10.13;;;;;;;;;;5034116;28;20206;-74
2024/01/14 00:51:01;;;;;;;23.30;10.37;;;;;;;;;;5039764;28;20205;-74
2024/01/14 00:53:27;;;;;;;15.80;9.47;;;;;;;;;;5034243;28;20202;-74
2024/01/14 00:55:52;;;;;;;15.13;5.67;;;;;;;;;;5040483;28;20194;-74
2024/01/14 00:58:17;;;;;;;24.17;10.90;;;;;;;;;;5036659;28;20206;-74
2024/01/14 01:00:42;;;;;;;18.90;9.47;;;;;;;;;;5033755;28;20221;-74
2024/01/14 01:03:08;;;;;;;17.27;8.37;;;;;;;;;;5035018;28;20186;-75
2024/01/14 01:05:33;;;;;;;19.57;9.57;;;;;;;;;;5032868;28;20181;-74
2024/01/14 01:07:58;;;;;;;19.87;11.53;;;;;;;;;;5041992;28;20201;-74
2024/01/14 01:10:23;;;;;;;19.50;10.33;;;;;;;;;;5034068;28;20183;-74
2024/01/14 01:12:48;;;;;;;17.43;8.77;;;;;;;;;;5037028;28;20230;-74
2024/01/14 01:15:14;;;;;;;21.10;10.40;;;;;;;;;;5032602;28;20182;-74
2024/01/14 01:17:39;;;;;;;18.93;8.90;;;;;;;;;;5039507;28;20189;-75
2024/01/14 01:20:05;;;;;;;23.40;10.27;;;;;;;;;;5031169;28;20179;-74
2024/01/14 01:22:30;;;;;;;23.17;10.10;;;;;;;;;;5031446;28;20211;-75
2024/01/14 01:24:55;;;;;;;18.40;9.23;;;;;;;;;;5036489;28;20185;-75
2024/01/14 01:27:21;;;;;;;19.17;9.83;;;;;;;;;;5037053;28;20183;-74
2024/01/14 01:29:46;;;;;;;19.93;9.80;;;;;;;;;;5035970;28;20178;-75
2024/01/14 01:32:11;;;;;;;26.20;12.73;;;;;;;;;;5040531;28;20214;-74
2024/01/14 01:34:37;;;;;;;24.37;11.53;;;;;;;;;;5040211;28;20501;-74
2024/01/14 01:37:02;;;;;;;24.13;12.27;;;;;;;;;;5039843;28;20178;-74
2024/01/14 01:39:28;;;;;;;27.57;13.73;;;;;;;;;;5044121;28;20196;-74
2024/01/14 01:41:53;;;;;;;26.17;12.57;;;;;;;;;;5034075;28;20245;-74
2024/01/14 01:44:18;;;;;;;22.27;11.93;;;;;;;;;;5039676;28;20261;-74
2024/01/14 01:46:44;;;;;;;20.00;11.20;;;;;;;;;;5038992;28;20198;-74
2024/01/14 01:49:10;;;;;;;20.90;10.87;;;;;;;;;;5039269;28;20351;-74
2024/01/14 01:51:36;;;;;;;22.30;11.27;;;;;;;;;;5036719;28;20281;-74
2024/01/14 01:54:01;;;;;;;28.93;12.90;;;;;;;;;;5037705;28;20198;-74
2024/01/14 01:56:26;;;;;;;24.03;12.93;;;;;;;;;;5037379;28;20174;-74
2024/01/14 01:58:52;;;;;;;23.00;12.20;;;;;;;;;;5039460;28;20189;-74
2024/01/14 02:01:17;;;;;;;26.80;13.30;;;;;;;;;;5040236;28;20179;-74
2024/01/14 02:03:42;;;;;;;27.47;12.30;;;;;;;;;;5033609;28;20297;-74
2024/01/14 02:06:09;;;;;;;20.70;11.20;;;;;;;;;;5031851;28;20191;-74
2024/01/14 02:08:35;;;;;;;23.30;12.57;;;;;;;;;;5037715;28;20194;-74
2024/01/14 02:11:00;;;;;;;21.17;11.07;;;;;;;;;;5037810;28;20483;-74
2024/01/14 02:13:25;;;;;;;27.47;13.37;;;;;;;;;;5036666;28;20230;-74
2024/01/14 02:15:50;;;;;;;25.93;12.27;;;;;;;;;;5037953;28;20171;-74
2024/01/14 02:18:15;;;;;;;20.83;11.10;;;;;;;;;;5036535;28;20179;-74
2024/01/14 02:20:41;;;;;;;24.00;11.20;;;;;;;;;;5039552;28;20236;-74
2024/01/14 02:23:09;;;;;;;23.00;11.43;;;;;;;;;;5037436;28;20198;-74
2024/01/14 02:25:34;;;;;;;22.83;11.40;;;;;;;;;;5034528;28;20383;-74
2024/01/14 02:28:00;;;;;;;22.73;12.30;;;;;;;;;;5035938;28;20285;-74
2024/01/14 02:30:25;;;;;;;18.87;9.97;;;;;;;;;;5037016;28;20181;-74
2024/01/14 02:32:52;;;;;;;22.97;11.70;;;;;;;;;;5038589;28;20209;-74
2024/01/14 02:35:17;;;;;;;15.23;9.33;;;;;;;;;;5034721;28;20182;-74
2024/01/14 02:37:44;;;;;;;17.20;8.07;;;;;;;;;;5029351;28;20200;-74
2024/01/14 02:40:10;;;;;;;11.87;5.13;;;;;;;;;;5039252;28;20178;-74
2024/01/14 02:42:35;;;;;;;18.87;9.60;;;;;;;;;;5037468;28;20174;-74
2024/01/14 02:45:01;;;;;;;23.30;10.30;;;;;;;;;;5040265;28;20190;-74
2024/01/14 02:47:26;;;;;;;19.20;9.47;;;;;;;;;;5041040;28;20201;-74
2024/01/14 02:49:51;;;;;;;21.53;10.80;;;;;;;;;;5040847;28;20202;-74
2024/01/14 02:52:17;;;;;;;21.70;12.03;;;;;;;;;;5040364;28;20316;-74
2024/01/14 02:54:42;;;;;;;25.77;12.97;;;;;;;;;;5040174;28;20224;-74
2024/01/14 02:57:07;;;;;;;21.90;10.80;;;;;;;;;;5036777;28;20181;-74
2024/01/14 02:59:32;;;;;;;21.77;9.97;;;;;;;;;;5038016;28;20201;-74
2024/01/14 03:01:58;;;;;;;26.30;12.30;;;;;;;;;;5046274;28;20182;-74
2024/01/14 03:04:23;;;;;;;23.20;9.73;;;;;;;;;;5036969;28;20183;-74
2024/01/14 03:06:48;;;;;;;25.60;11.80;;;;;;;;;;5033513;28;20231;-74
2024/01/14 03:09:14;;;;;;;29.80;13.03;;;;;;;;;;5038502;28;20213;-74
2024/01/14 03:11:39;;;;;;;36.07;17.13;;;;;;;;;;5036563;28;20218;-74
2024/01/14 03:14:06;;;;;;;25.07;11.97;;;;;;;;;;5035635;28;20257;-74
2024/01/14 03:16:31;;;;;;;29.83;13.43;;;;;;;;;;5036238;28;20182;-74
2024/01/14 03:18:56;;;;;;;37.77;17.43;;;;;;;;;;5037276;28;20170;-74
2024/01/14 03:21:21;;;;;;;29.13;13.10;;;;;;;;;;5034148;28;20193;-74
2024/01/14 03:23:46;;;;;;;27.50;11.53;;;;;;;;;;5029192;28;20217;-74
2024/01/14 03:26:12;;;;;;;24.53;12.27;;;;;;;;;;5037782;28;20195;-75
2024/01/14 03:28:37;;;;;;;22.57;8.57;;;;;;;;;;5037389;28;20209;-74
2024/01/14 03:31:02;;;;;;;14.00;7.00;;;;;;;;;;5032539;28;20178;-74
2024/01/14 03:33:27;;;;;;;30.20;13.57;;;;;;;;;;5038924;28;20228;-74
2024/01/14 03:35:53;;;;;;;25.80;14.03;;;;;;;;;;5038424;28;20174;-74
2024/01/14 03:38:18;;;;;;;16.97;8.17;;;;;;;;;;5039564;28;20238;-74
2024/01/14 03:40:44;;;;;;;32.97;11.17;;;;;;;;;;5029589;28;20216;-74
2024/01/14 03:43:09;;;;;;;25.27;12.73;;;;;;;;;;5034947;28;20269;-75
2024/01/14 03:45:34;;;;;;;10.40;6.67;;;;;;;;;;5041443;28;20185;-74
2024/01/14 03:47:59;;;;;;;24.17;10.90;;;;;;;;;;5035928;28;20174;-74
2024/01/14 03:50:24;;;;;;;26.90;12.77;;;;;;;;;;5035781;28;20198;-75
2024/01/14 03:52:50;;;;;;;16.47;7.73;;;;;;;;;;5031452;28;20206;-74
2024/01/14 03:55:15;;;;;;;34.40;14.97;;;;;;;;;;5035042;28;20245;-74
2024/01/14 03:57:40;;;;;;;30.60;14.10;;;;;;;;;;5032006;28;20199;-74
2024/01/14 04:00:07;;;;;;;23.03;10.60;;;;;;;;;;5033795;28;20273;-74
2024/01/14 04:02:32;;;;;;;19.60;8.23;;;;;;;;;;5031974;28;20580;-74
2024/01/14 04:04:57;;;;;;;22.07;11.57;;;;;;;;;;5032659;28;20201;-74
2024/01/14 04:07:22;;;;;;;31.83;12.33;;;;;;;;;;5028756;28;20196;-74
2024/01/14 04:09:48;;;;;;;29.53;11.37;;;;;;;;;;5033167;28;20179;-74
2024/01/14 04:12:13;;;;;;;26.53;11.83;;;;;;;;;;5030869;28;20253;-74
2024/01/14 04:14:38;;;;;;;35.30;15.57;;;;;;;;;;5028957;28;20183;-74
2024/01/14 04:17:04;;;;;;;21.57;9.27;;;;;;;;;;5040247;28;20170;-74
2024/01/14 04:19:29;;;;;;;32.63;14.33;;;;;;;;;;5036631;28;20183;-74
2024/01/14 04:21:54;;;;;;;22.57;10.87;;;;;;;;;;5033548;28;20179;-74
2024/01/14 04:24:19;;;;;;;33.67;15.17;;;;;;;;;;5042952;28;20182;-74
2024/01/14 04:26:45;;;;;;;17.10;8.90;;;;;;;;;;5036841;28;20185;-74
2024/01/14 04:29:10;;;;;;;42.73;16.53;;;;;;;;;;5041842;28;20175;-74
2024/01/14 04:31:35;;;;;;;29.27;10.10;;;;;;;;;;5044499;28;20178;-74
2024/01/14 04:34:03;;;;;;;30.60;14.50;;;;;;;;;;5042955;28;20201;-74
2024/01/14 04:36:29;;;;;;;29.13;12.30;;;;;;;;;;5038179;28;20178;-74
2024/01/14 04:38:54;;;;;;;22.53;7.03;;;;;;;;;;5040751;28;20194;-74
2024/01/14 04:41:20;;;;;;;18.97;8.83;;;;;;;;;;5036268;28;20185;-74
2024/01/14 04:43:45;;;;;;;14.93;9.13;;;;;;;;;;5034723;28;20198;-74
2024/01/14 04:46:10;;;;;;;10.67;5.23;;;;;;;;;;5040478;28;20186;-74
2024/01/14 04:48:35;;;;;;;9.93;6.67;;;;;;;;;;5042545;28;20183;-75
2024/01/14 04:51:01;;;;;;;31.13;15.87;;;;;;;;;;5038295;28;20194;-74
2024/01/14 04:53:27;;;;;;;38.53;15.30;;;;;;;;;;5034621;28;20202;-74
2024/01/14 04:55:52;;;;;;;16.00;8.10;;;;;;;;;;5036697;28;20233;-74
2024/01/14 04:58:17;;;;;;;21.20;7.97;;;;;;;;;;5038569;28;20173;-74
2024/01/14 05:00:43;;;;;;;37.67;15.03;;;;;;;;;;5034873;28;20296;-74
2024/01/14 05:03:08;;;;;;;19.73;9.70;;;;;;;;;;5034260;28;20183;-74
2024/01/14 05:05:33;;;;;;;24.83;12.03;;;;;;;;;;5042523;28;20204;-74
2024/01/14 05:07:58;;;;;;;21.83;10.07;;;;;;;;;;5036124;28;20179;-74
2024/01/14 05:10:23;;;;;;;26.00;12.87;;;;;;;;;;5043691;28;20239;-74
2024/01/14 05:12:49;;;;;;;22.70;10.07;;;;;;;;;;5037665;28;20234;-74
2024/01/14 05:15:14;;;;;;;25.53;11.70;;;;;;;;;;5043193;28;20178;-74
2024/01/14 05:17:39;;;;;;;25.50;11.83;;;;;;;;;;5035101;28;20174;-75
2024/01/14 05:20:05;;;;;;;39.47;17.07;;;;;;;;;;5033733;28;20188;-74
2024/01/14 05:22:31;;;;;;;27.83;13.47;;;;;;;;;;5036981;28;20178;-74
2024/01/14 05:24:56;;;;;;;30.50;13.73;;;;;;;;;;5032442;28;20181;-74
2024/01/14 05:27:21;;;;;;;26.80;14.00;;;;;;;;;;5032215;28;20178;-74
2024/01/14 05:29:47;;;;;;;27.20;12.33;;;;;;;;;;5036063;28;20261;-74
2024/01/14 05:32:13;;;;;;;24.97;11.53;;;;;;;;;;5038942;28;20199;-74
2024/01/14 05:34:38;;;;;;;31.07;14.80;;;;;;;;;;5042721;28;20240;-74
2024/01/14 05:37:03;;;;;;;32.67;16.23;;;;;;;;;;5034084;28;20313;-74
2024/01/14 05:39:30;;;;;;;30.27;15.00;;;;;;;;;;5041189;28;20189;-74
2024/01/14 05:41:55;;;;;;;21.27;11.10;;;;;;;;;;5031613;28;20186;-74
2024/01/14 05:44:20;;;;;;;33.63;13.43;;;;;;;;;;5040841;28;20178;-74
2024/01/14 05:46:46;;;;;;;35.80;13.77;;;;;;;;;;5038037;28;20182;-74
2024/01/14 05:49:11;;;;;;;27.10;13.30;;;;;;;;;;5042756;28;20268;-74
2024/01/14 05:51:36;;;;;;;31.03;14.23;;;;;;;;;;5034279;28;20183;-74
2024/01/14 05:54:03;;;;;;;30.57;15.90;;;;;;;;;;5032993;28;20516;-74
2024/01/14 05:56:28;;;;;;;19.90;9.07;;;;;;;;;;5032385;28;20179;-74
2024/01/14 05:58:54;;;;;;;12.70;7.07;;;;;;;;;;5038684;28;20181;-74
2024/01/14 06:01:19;;;;;;;30.83;12.90;;;;;;;;;;5031807;28;20170;-74
2024/01/14 06:03:44;;;;;;;34.30;15.17;;;;;;;;;;5031733;28;20193;-74
2024/01/14 06:06:10;;;;;;;60.60;28.07;;;;;;;;;;5039843;28;20225;-74
2024/01/14 06:08:35;;;;;;;57.03;24.63;;;;;;;;;;5032544;28;20179;-74
2024/01/14 06:11:03;;;;;;;69.63;29.60;;;;;;;;;;5038630;28;20185;-74
2024/01/14 06:13:28;;;;;;;35.87;18.20;;;;;;;;;;5030896;28;20313;-74
2024/01/14 06:15:54;;;;;;;29.97;14.53;;;;;;;;;;5037111;28;20267;-74
2024/01/14 06:18:19;;;;;;;58.97;27.40;;;;;;;;;;5032148;28;20182;-74
2024/01/14 06:20:44;;;;;;;38.43;18.13;;;;;;;;;;5034366;28;20190;-74
2024/01/14 06:23:09;;;;;;;32.20;13.63;;;;;;;;;;5038882;28;20308;-74
2024/01/14 06:25:35;;;;;;;31.83;15.60;;;;;;;;;;5033748;28;20175;-74
2024/01/14 06:28:02;;;;;;;41.00;21.13;;;;;;;;;;5036884;28;21697;-74
2024/01/14 06:30:27;;;;;;;28.57;13.90;;;;;;;;;;5041430;28;20344;-74
2024/01/14 06:32:56;;;;;;;32.40;13.60;;;;;;;;;;5030273;28;20285;-74
2024/01/14 06:35:21;;;;;;;28.17;13.60;;;;;;;;;;5042830;28;20187;-74
2024/01/14 06:37:47;;;;;;;28.33;12.63;;;;;;;;;;5029287;28;20234;-74
2024/01/14 06:40:12;;;;;;;33.57;13.77;;;;;;;;;;5037807;28;20299;-74
2024/01/14 06:42:37;;;;;;;31.10;12.90;;;;;;;;;;5036234;28;20201;-74
2024/01/14 06:45:02;;;;;;;33.43;17.33;;;;;;;;;;5039098;28;20181;-74
2024/01/14 06:47:28;;;;;;;35.13;16.60;;;;;;;;;;5046876;28;20205;-74
2024/01/14 06:49:54;;;;;;;32.80;14.70;;;;;;;;;;5041504;28;20207;-74
2024/01/14 06:52:22;;;;;;;32.17;14.50;;;;;;;;;;5037666;28;20198;-74
2024/01/14 06:54:47;;;;;;;29.77;14.83;;;;;;;;;;5035034;28;20178;-74
2024/01/14 06:57:12;;;;;;;31.70;13.73;;;;;;;;;;5035485;28;20182;-74
2024/01/14 06:59:42;;;;;;;27.60;13.60;;;;;;;;;;5033896;28;20174;-74
2024/01/14 07:02:07;;;;;;;27.33;12.70;;;;;;;;;;5029846;28;20178;-74
2024/01/14 07:04:32;;;;;;;33.20;15.80;;;;;;;;;;5032342;28;20270;-74
2024/01/14 07:06:57;;;;;;;27.77;14.27;;;;;;;;;;5043573;28;20175;-74
2024/01/14 07:09:23;;;;;;;23.23;11.50;;;;;;;;;;5035641;28;20185;-74
2024/01/14 07:11:48;;;;;;;29.23;12.73;;;;;;;;;;5030845;28;20272;-74
2024/01/14 07:14:13;;;;;;;27.67;13.53;;;;;;;;;;5031500;28;20229;-74
2024/01/14 07:16:38;;;;;;;34.40;13.73;;;;;;;;;;5033195;28;20228;-74
2024/01/14 07:19:04;;;;;;;28.90;13.43;;;;;;;;;;5030774;28;20171;-74
2024/01/14 07:21:30;;;;;;;33.67;13.47;;;;;;;;;;5032291;28;20265;-74
2024/01/14 07:23:56;;;;;;;31.93;14.63;;;;;;;;;;5027333;28;20194;-73
2024/01/14 07:26:21;;;;;;;31.33;13.60;;;;;;;;;;5029423;28;20190;-74
2024/01/14 07:28:46;;;;;;;31.77;14.33;;;;;;;;;;5039048;28;20189;-74
2024/01/14 07:31:14;;;;;;;26.23;12.97;;;;;;;;;;5039471;28;20227;-74
2024/01/14 07:33:39;;;;;;;22.87;11.63;;;;;;;;;;5038208;28;20410;-73
2024/01/14 07:36:04;;;;;;;28.77;14.77;;;;;;;;;;5041077;28;20188;-74
2024/01/14 07:38:30;;;;;;;29.53;13.27;;;;;;;;;;5041147;28;20193;-74
2024/01/14 07:40:55;;;;;;;23.47;12.97;;;;;;;;;;5042327;28;20178;-74
2024/01/14 07:43:21;;;;;;;28.80;12.17;;;;;;;;;;5041630;28;20186;-74
2024/01/14 07:45:47;;;;;;;25.50;10.47;;;;;;;;;;5036903;28;20178;-73
2024/01/14 07:48:13;;;;;;;32.93;16.00;;;;;;;;;;5035646;28;20178;-74
2024/01/14 07:50:38;;;;;;;26.33;11.33;;;;;;;;;;5039745;28;20208;-74
2024/01/14 07:53:03;;;;;;;24.27;11.50;;;;;;;;;;5034910;28;20221;-74
2024/01/14 07:55:28;;;;;;;23.63;11.50;;;;;;;;;;5040605;28;20186;-74
2024/01/14 07:57:55;;;;;;;33.10;12.80;;;;;;;;;;5035599;28;20175;-73
2024/01/14 08:00:20;;;;;;;26.77;11.07;;;;;;;;;;5045214;28;20186;-74
2024/01/14 08:02:45;;;;;;;18.37;8.97;;;;;;;;;;5033870;28;20174;-74
2024/01/14 08:05:11;;;;;;;21.60;10.93;;;;;;;;;;5039471;28;20189;-73
2024/01/14 08:07:36;;;;;;;29.90;14.00;;;;;;;;;;5033582;28;20185;-73
2024/01/14 08:10:01;;;;;;;26.47;11.33;;;;;;;;;;5035756;28;20200;-73
2024/01/14 08:12:27;;;;;;;24.50;11.80;;;;;;;;;;5037388;28;20214;-74
2024/01/14 08:14:52;;;;;;;26.40;12.03;;;;;;;;;;5034769;28;20208;-74
2024/01/14 08:17:17;;;;;;;30.40;11.87;;;;;;;;;;5037980;28;20183;-75
2024/01/14 08:19:42;;;;;;;24.30;10.47;;;;;;;;;;5041132;28;20178;-74
2024/01/14 08:22:08;;;;;;;17.40;8.43;;;;;;;;;;5035036;28;20228;-74
2024/01/14 08:24:33;;;;;;;23.77;8.57;;;;;;;;;;5036230;28;20177;-74
2024/01/14 08:26:59;;;;;;;16.87;8.13;;;;;;;;;;5039159;28;20177;-74
2024/01/14 08:29:24;;;;;;;25.60;10.73;;;;;;;;;;5050805;28;20178;-74
2024/01/14 08:31:49;;;;;;;22.53;9.47;;;;;;;;;;5032694;28;20171;-74
2024/01/14 08:34:14;;;;;;;25.17;11.00;;;;;;;;;;5037362;28;20199;-74
2024/01/14 08:36:39;;;;;;;15.77;7.50;;;;;;;;;;5041550;28;20185;-74
2024/01/14 08:39:05;;;;;;;21.23;9.83;;;;;;;;;;5044523;28;20217;-74
2024/01/14 08:41:30;;;;;;;22.67;10.87;;;;;;;;;;5035960;28;20185;-74
2024/01/14 08:43:56;;;;;;;20.43;9.80;;;;;;;;;;5044293;28;20178;-74
2024/01/14 08:46:22;;;;;;;18.33;10.07;;;;;;;;;;5041126;28;20178;-74
2024/01/14 08:48:47;;;;;;;24.03;11.67;;;;;;;;;;5044924;28;20273;-75
2024/01/14 08:51:13;;;;;;;25.73;12.63;;;;;;;;;;5035100;28;20197;-74
2024/01/14 08:53:38;;;;;;;20.30;10.60;;;;;;;;;;5043470;28;20222;-74
2024/01/14 08:56:03;;;;;;;22.33;10.33;;;;;;;;;;5036355;28;20431;-74
2024/01/14 08:58:29;;;;;;;23.43;11.43;;;;;;;;;;5038539;28;20198;-74
2024/01/14 09:00:54;;;;;;;26.90;12.17;;;;;;;;;;5027969;28;20175;-75
2024/01/14 09:03:19;;;;;;;20.13;11.63;;;;;;;;;;5043600;28;20197;-74
2024/01/14 09:05:45;;;;;;;32.27;11.93;;;;;;;;;;5037283;28;20265;-74
2024/01/14 09:08:10;;;;;;;25.07;10.67;;;;;;;;;;5038691;28;20182;-74
2024/01/14 09:10:35;;;;;;;21.10;9.40;;;;;;;;;;5034400;28;20178;-74
2024/01/14 09:13:01;;;;;;;24.07;10.40;;;;;;;;;;5037736;28;20235;-74
2024/01/14 09:15:26;;;;;;;20.20;10.63;;;;;;;;;;5038439;28;20181;-74
2024/01/14 09:17:51;;;;;;;29.17;13.73;;;;;;;;;;5039952;28;20251;-74
2024/01/14 09:20:17;;;;;;;27.70;10.90;;;;;;;;;;5035541;28;20289;-75
2024/01/14 09:22:42;;;;;;;26.13;11.80;;;;;;;;;;5040739;28;20209;-76
2024/01/14 09:25:07;;;;;;;23.67;10.37;;;;;;;;;;5040026;28;20182;-76
2024/01/14 09:27:34;;;;;;;17.77;9.90;;;;;;;;;;5038254;28;20293;-76
2024/01/14 09:30:00;;;;;;;24.77;10.93;;;;;;;;;;5045113;28;20178;-76
2024/01/14 09:32:25;;;;;;;20.43;10.07;;;;;;;;;;5040496;28;20202;-76
2024/01/14 09:34:50;;;;;;;23.87;11.07;;;;;;;;;;5036275;28;20265;-76
2024/01/14 09:37:15;;;;;;;28.77;13.33;;;;;;;;;;5031684;28;20266;-76
2024/01/14 09:39:41;;;;;;;24.33;9.60;;;;;;;;;;5038359;28;20182;-76
2024/01/14 09:42:10;;;;;;;22.00;10.17;;;;;;;;;;5034220;28;20175;-76
2024/01/14 09:44:35;;;;;;;22.20;9.90;;;;;;;;;;5035326;28;20178;-76
2024/01/14 09:47:01;;;;;;;26.33;10.27;;;;;;;;;;5035432;28;20262;-76
2024/01/14 09:49:27;;;;;;;23.33;10.63;;;;;;;;;;5041303;28;20170;-76
2024/01/14 09:51:52;;;;;;;20.33;9.60;;;;;;;;;;5032836;28;20179;-76
2024/01/14 09:54:17;;;;;;;22.93;12.53;;;;;;;;;;5034256;28;20194;-76
2024/01/14 09:56:44;;;;;;;21.73;10.90;;;;;;;;;;5038071;28;20205;-76
2024/01/14 09:59:09;;;;;;;21.83;11.57;;;;;;;;;;5036382;28;20217;-76
2024/01/14 10:01:35;;;;;;;18.27;10.13;;;;;;;;;;5031918;28;20179;-76
2024/01/14 10:04:01;;;;;;;21.40;11.53;;;;;;;;;;5034189;28;20248;-76
2024/01/14 10:06:29;;;;;;;26.73;11.50;;;;;;;;;;5036536;28;20217;-76
2024/01/14 10:17:14;;;;;;;24.77;12.93;;;;;;;;;;5036947;28;20245;-82
2024/01/14 10:19:39;;;;;;;25.70;12.27;;;;;;;;;;5030864;28;20185;-82
2024/01/14 10:22:05;;;;;;;21.97;10.67;;;;;;;;;;5032057;28;20190;-82
2024/01/14 10:24:30;;;;;;;24.17;11.77;;;;;;;;;;5031728;28;20174;-82
2024/01/14 10:26:55;;;;;;;22.60;10.83;;;;;;;;;;5031673;28;20196;-82
2024/01/14 10:29:21;;;;;;;29.50;13.87;;;;;;;;;;5032293;28;20235;-82
2024/01/14 10:31:48;;;;;;;23.20;11.23;;;;;;;;;;5030239;28;20202;-82
2024/01/14 10:34:14;;;;;;;29.43;13.23;;;;;;;;;;5030463;28;20211;-82
2024/01/14 10:36:39;;;;;;;22.27;11.57;;;;;;;;;;5033165;28;20185;-82
2024/01/14 10:39:07;;;;;;;19.73;9.27;;;;;;;;;;5035467;28;20170;-82
2024/01/14 10:41:32;;;;;;;24.20;11.63;;;;;;;;;;5028529;28;20178;-81
2024/01/14 10:43:58;;;;;;;17.13;9.20;;;;;;;;;;5031177;28;20248;-81
2024/01/14 10:46:24;;;;;;;29.73;14.43;;;;;;;;;;5032791;28;20201;-80
2024/01/14 10:48:52;;;;;;;23.03;11.37;;;;;;;;;;5030930;28;20280;-80
2024/01/14 10:51:18;;;;;;;20.00;10.80;;;;;;;;;;5031923;28;20174;-79
2024/01/14 10:54:02;;;;;;;21.07;10.27;;;;;;;;;;5026615;28;20202;-79
2024/01/14 10:56:31;;;;;;;21.23;10.10;;;;;;;;;;5049764;28;20170;-78
2024/01/14 10:58:58;;;;;;;16.60;9.47;;;;;;;;;;5030435;28;20201;-78
2024/01/14 11:01:24;;;;;;;24.67;11.27;;;;;;;;;;5028101;28;20177;-78
2024/01/14 11:03:51;;;;;;;23.53;11.00;;;;;;;;;;5027997;28;20269;-77
2024/01/14 11:06:18;;;;;;;26.63;12.40;;;;;;;;;;5026250;28;20197;-77
2024/01/14 11:08:44;;;;;;;29.57;14.03;;;;;;;;;;5049259;28;20175;-77
2024/01/14 11:11:09;;;;;;;24.03;12.53;;;;;;;;;;5027478;28;20338;-77
2024/01/14 11:13:51;;;;;;;27.87;12.07;;;;;;;;;;5031692;28;20197;-77
2024/01/14 11:16:29;;;;;;;25.50;12.40;;;;;;;;;;5031637;28;20214;-78
2024/01/14 11:18:58;;;;;;;28.47;11.50;;;;;;;;;;5027793;28;20414;-78
2024/01/14 11:21:30;;;;;;;33.27;14.43;;;;;;;;;;5030340;28;20170;-78
2024/01/14 11:23:57;;;;;;;26.00;12.47;;;;;;;;;;5027869;28;20213;-78
2024/01/14 11:26:26;;;;;;;39.70;17.37;;;;;;;;;;5040378;28;20186;-79
2024/01/14 11:28:57;;;;;;;8.57;5.87;;;;;;;;;;5049305;28;20185;-81
2024/01/14 11:31:42;;;;;;;34.80;15.83;;;;;;;;;;5029969;28;20181;-81
2024/01/14 11:34:08;;;;;;;26.47;12.50;;;;;;;;;;5022521;28;20213;-80
2024/01/14 11:36:53;;;;;;;23.27;11.47;;;;;;;;;;5029905;28;20179;-81
2024/01/14 11:39:18;;;;;;;27.90;15.00;;;;;;;;;;5043732;28;20192;-81
2024/01/14 11:41:43;;;;;;;29.73;14.37;;;;;;;;;;5030043;28;20174;-80
2024/01/14 11:44:11;;;;;;;35.03;15.30;;;;;;;;;;5025776;28;20218;-82
2024/01/14 11:46:40;;;;;;;46.33;22.67;;;;;;;;;;5034867;28;20186;-81
2024/01/14 11:49:10;;;;;;;59.90;24.33;;;;;;;;;;5024148;28;20175;-81
2024/01/14 11:51:39;;;;;;;39.20;17.87;;;;;;;;;;5022931;28;20381;-81
2024/01/14 11:54:08;;;;;;;45.83;19.80;;;;;;;;;;5025864;28;20227;-81
2024/01/14 11:56:34;;;;;;;41.43;18.00;;;;;;;;;;5026346;28;20261;-81
2024/01/14 11:58:59;;;;;;;37.00;18.33;;;;;;;;;;5028506;28;20384;-81
2024/01/14 12:01:27;;;;;;;114.27;39.07;;;;;;;;;;5043845;28;20247;-81
2024/01/14 12:04:08;;;;;;;62.70;24.43;;;;;;;;;;5027646;28;20175;-81
2024/01/14 12:06:40;;;;;;;35.17;15.77;;;;;;;;;;5029162;28;20515;-81
2024/01/14 12:09:06;;;;;;;33.00;14.57;;;;;;;;;;5029818;28;20205;-81
2024/01/14 12:11:32;;;;;;;51.53;20.30;;;;;;;;;;5041966;28;20285;-81
2024/01/14 12:13:57;;;;;;;55.83;20.13;;;;;;;;;;5030173;28;20217;-81
2024/01/14 12:16:22;;;;;;;45.70;18.83;;;;;;;;;;5025623;28;20247;-81
2024/01/14 12:18:48;;;;;;;41.87;17.43;;;;;;;;;;5028855;28;20175;-81
2024/01/14 12:21:17;;;;;;;59.37;27.17;;;;;;;;;;5033893;28;20179;-81
2024/01/14 12:23:43;;;;;;;32.23;17.10;;;;;;;;;;5047219;28;20259;-80
2024/01/14 12:26:09;;;;;;;32.97;17.97;;;;;;;;;;5027273;28;20286;-81
2024/01/14 12:28:34;;;;;;;30.57;15.50;;;;;;;;;;5024375;28;20210;-81
2024/01/14 12:30:59;;;;;;;26.27;14.33;;;;;;;;;;5025088;28;20292;-80
2024/01/14 12:33:25;;;;;;;29.17;14.77;;;;;;;;;;5027271;28;20195;-80
2024/01/14 12:35:50;;;;;;;24.73;13.00;;;;;;;;;;5031318;28;20170;-80
2024/01/14 12:38:16;;;;;;;30.97;14.23;;;;;;;;;;5031435;28;20168;-80
2024/01/14 12:40:41;;;;;;;27.30;13.93;;;;;;;;;;5051312;28;20176;-80
2024/01/14 12:43:09;;;;;;;29.20;14.93;;;;;;;;;;5033557;28;20186;-80
2024/01/14 12:45:35;;;;;;;26.10;14.23;;;;;;;;;;5047194;28;20229;-80
2024/01/14 12:48:01;;;;;;;27.47;13.90;;;;;;;;;;5032766;28;20183;-80
2024/01/14 12:50:33;;;;;;;25.63;13.37;;;;;;;;;;5031269;28;20210;-80
2024/01/14 12:53:02;;;;;;;30.20;13.40;;;;;;;;;;5027939;28;20205;-80
2024/01/14 12:55:29;;;;;;;28.70;14.60;;;;;;;;;;5035773;28;20177;-80
2024/01/14 12:57:55;;;;;;;29.33;13.10;;;;;;;;;;5034358;28;20205;-80
2024/01/14 13:00:20;;;;;;;29.03;15.03;;;;;;;;;;5030266;28;20449;-80
2024/01/14 13:02:45;;;;;;;27.13;15.73;;;;;;;;;;5032547;28;20179;-80
2024/01/14 13:05:10;;;;;;;24.93;13.07;;;;;;;;;;5032216;28;20179;-80
2024/01/14 13:07:36;;;;;;;24.17;11.87;;;;;;;;;;5030835;28;20270;-80
2024/01/14 13:10:01;;;;;;;25.07;12.87;;;;;;;;;;5027493;28;20180;-80
2024/01/14 13:12:26;;;;;;;25.57;13.87;;;;;;;;;;5038772;28;20205;-81
2024/01/14 13:14:51;;;;;;;21.07;11.80;;;;;;;;;;5050893;28;20184;-80
2024/01/14 13:17:16;;;;;;;25.67;12.97;;;;;;;;;;5050839;28;20192;-81
2024/01/14 13:19:41;;;;;;;26.20;13.20;;;;;;;;;;5027185;28;20265;-80
2024/01/14 13:22:07;;;;;;;21.97;12.43;;;;;;;;;;5037380;28;20176;-80
2024/01/14 13:24:32;;;;;;;23.03;12.07;;;;;;;;;;5031933;28;20173;-80
2024/01/14 13:26:57;;;;;;;22.20;12.63;;;;;;;;;;5028627;28;20182;-80
2024/01/14 13:29:22;;;;;;;21.23;11.03;;;;;;;;;;5028049;28;20183;-79
2024/01/14 13:31:49;;;;;;;28.10;12.60;;;;;;;;;;5031825;28;20262;-79
2024/01/14 13:34:15;;;;;;;24.30;13.43;;;;;;;;;;5029864;28;20203;-79
2024/01/14 13:36:40;;;;;;;19.27;10.97;;;;;;;;;;5048158;28;20187;-79
2024/01/14 13:39:06;;;;;;;22.97;12.20;;;;;;;;;;5044842;28;20174;-79
2024/01/14 13:41:31;;;;;;;25.20;12.43;;;;;;;;;;5022979;28;20207;-78
2024/01/14 13:43:57;;;;;;;20.00;11.10;;;;;;;;;;5028761;28;20206;-78
2024/01/14 13:46:22;;;;;;;22.23;12.00;;;;;;;;;;5043990;28;20176;-78
2024/01/14 13:48:47;;;;;;;24.07;13.43;;;;;;;;;;5046567;28;20268;-78
2024/01/14 13:51:13;;;;;;;25.53;12.90;;;;;;;;;;5029591;28;20188;-78
2024/01/14 13:53:38;;;;;;;26.30;14.07;;;;;;;;;;5033553;28;20282;-78
2024/01/14 13:56:03;;;;;;;23.17;13.93;;;;;;;;;;5024863;28;20184;-78
2024/01/14 13:58:28;;;;;;;25.67;14.00;;;;;;;;;;5029881;28;20250;-78
2024/01/14 14:00:53;;;;;;;24.20;14.00;;;;;;;;;;5027550;28;20175;-78
2024/01/14 14:03:19;;;;;;;21.90;11.93;;;;;;;;;;5030217;28;20468;-77
2024/01/14 14:05:48;;;;;;;23.87;12.77;;;;;;;;;;5028183;28;20203;-77
2024/01/14 14:08:14;;;;;;;21.13;12.40;;;;;;;;;;5046107;28;20262;-77
2024/01/14 14:10:39;;;;;;;28.77;14.80;;;;;;;;;;5029012;28;20246;-77
2024/01/14 14:13:04;;;;;;;26.07;12.80;;;;;;;;;;5029608;28;20209;-77
2024/01/14 14:15:29;;;;;;;34.03;14.10;;;;;;;;;;5025376;28;20260;-77
2024/01/14 14:17:55;;;;;;;27.07;13.53;;;;;;;;;;5031507;28;20526;-78